createdAt,value
2023-04-16T00:00:56.432Z,8.35
2023-04-16T00:03:23.863Z,8.23
2023-04-16T00:05:50.773Z,7.72
2023-04-16T00:08:17.530Z,8.68
2023-04-16T00:10:43.974Z,8.35
2023-04-16T00:13:10.588Z,8.50
2023-04-16T00:15:37.028Z,8.50
2023-04-16T00:18:03.794Z,9.25
2023-04-16T00:20:30.270Z,8.73
2023-04-16T00:22:56.789Z,8.35
2023-04-16T00:25:23.425Z,7.72
2023-04-16T00:27:49.909Z,8.50
2023-04-16T00:30:16.802Z,8.25
2023-04-16T00:32:43.312Z,8.00
2023-04-16T00:35:09.819Z,9.48
2023-04-16T00:37:36.275Z,8.77
2023-04-16T00:40:02.910Z,8.80
2023-04-16T00:42:29.641Z,9.50
2023-04-16T00:44:56.106Z,9.25
2023-04-16T00:47:22.962Z,9.63
2023-04-16T00:49:50.170Z,9.05
2023-04-16T00:52:17.130Z,8.63
2023-04-16T00:54:43.818Z,8.73
2023-04-16T00:57:10.819Z,9.57
2023-04-16T00:59:37.451Z,8.75
2023-04-16T01:02:04.048Z,9.40
2023-04-16T01:04:31.410Z,9.35
2023-04-16T01:06:58.028Z,8.70
2023-04-16T01:09:24.616Z,9.48
2023-04-16T01:11:51.243Z,8.93
2023-04-16T01:14:18.003Z,8.65
2023-04-16T01:16:44.451Z,9.68
2023-04-16T01:19:11.181Z,11.00
2023-04-16T01:21:37.935Z,9.43
2023-04-16T01:24:04.963Z,9.30
2023-04-16T01:26:32.368Z,9.30
2023-04-16T01:29:00.328Z,10.10
2023-04-16T01:31:27.036Z,9.45
2023-04-16T01:34:06.786Z,10.07
2023-04-16T01:36:34.772Z,9.75
2023-04-16T01:39:01.292Z,10.35
2023-04-16T01:41:27.867Z,10.43
2023-04-16T01:43:54.292Z,10.07
2023-04-16T01:46:27.117Z,10.88
2023-04-16T01:48:54.923Z,9.85
2023-04-16T01:51:22.031Z,11.20
2023-04-16T01:54:09.281Z,10.52
2023-04-16T01:56:55.910Z,11.07
2023-04-16T01:59:42.681Z,9.75
2023-04-16T02:02:30.270Z,10.57
2023-04-16T02:05:17.130Z,12.73
2023-04-16T02:08:03.709Z,10.48
2023-04-16T02:10:30.434Z,11.98
2023-04-16T02:12:57.509Z,11.00
2023-04-16T02:15:25.225Z,11.07
2023-04-16T02:17:56.563Z,11.00
2023-04-16T02:20:24.646Z,11.18
2023-04-16T02:25:24.193Z,10.90
2023-04-16T02:27:53.187Z,9.90
2023-04-16T02:30:38.135Z,11.57
2023-04-16T02:33:07.377Z,10.60
2023-04-16T02:35:35.333Z,10.50
2023-04-16T02:38:02.581Z,11.10
2023-04-16T02:40:30.459Z,11.23
2023-04-16T02:42:57.859Z,11.68
2023-04-16T02:45:24.789Z,11.57
2023-04-16T02:47:51.582Z,11.00
2023-04-16T02:50:18.787Z,12.52
2023-04-16T02:52:45.406Z,12.52
2023-04-16T02:55:12.079Z,11.25
2023-04-16T02:57:38.581Z,13.23
2023-04-16T03:00:05.812Z,13.70
2023-04-16T03:02:32.639Z,12.93
2023-04-16T03:04:59.303Z,12.98
2023-04-16T03:07:26.274Z,12.70
2023-04-16T03:09:52.842Z,12.40
2023-04-16T03:12:19.321Z,12.20
2023-04-16T03:14:46.180Z,13.73
2023-04-16T03:17:12.658Z,13.10
2023-04-16T03:19:39.448Z,12.98
2023-04-16T03:22:06.190Z,12.57
2023-04-16T03:24:33.678Z,12.15
2023-04-16T03:27:01.996Z,12.82
2023-04-16T03:29:28.911Z,13.27
2023-04-16T03:31:56.784Z,12.55
2023-04-16T03:34:23.573Z,12.98
2023-04-16T03:36:50.241Z,12.98
2023-04-16T03:39:17.158Z,12.23
2023-04-16T03:41:43.586Z,14.13
2023-04-16T03:44:10.353Z,14.13
2023-04-16T03:46:36.899Z,14.32
2023-04-16T03:49:03.724Z,13.38
2023-04-16T03:51:30.821Z,12.93
2023-04-16T03:53:57.548Z,13.57
2023-04-16T03:56:25.656Z,13.40
2023-04-16T03:58:53.014Z,14.20
2023-04-16T04:01:19.537Z,12.80
2023-04-16T04:03:46.730Z,13.40
2023-04-16T04:06:14.955Z,13.05
2023-04-16T04:08:41.491Z,12.57
2023-04-16T04:11:08.350Z,12.90
2023-04-16T04:13:35.714Z,12.77
2023-04-16T04:16:03.626Z,13.00
2023-04-16T04:18:30.144Z,12.68
2023-04-16T04:20:57.251Z,13.70
2023-04-16T04:23:27.502Z,13.65
2023-04-16T04:25:54.106Z,13.40
2023-04-16T04:28:20.843Z,13.00
2023-04-16T04:30:47.862Z,13.45
2023-04-16T04:33:14.341Z,13.40
2023-04-16T04:35:41.608Z,13.55
2023-04-16T04:38:08.883Z,12.45
2023-04-16T04:40:35.730Z,12.43
2023-04-16T04:43:03.402Z,12.63
2023-04-16T04:45:31.817Z,12.50
2023-04-16T04:47:58.841Z,12.88
2023-04-16T04:50:25.610Z,12.15
2023-04-16T04:52:52.072Z,13.35
2023-04-16T04:55:18.635Z,12.98
2023-04-16T04:57:45.517Z,12.40
2023-04-16T05:00:12.438Z,11.88
2023-04-16T05:02:44.704Z,12.38
2023-04-16T05:05:11.475Z,11.32
2023-04-16T05:07:38.040Z,11.13
2023-04-16T05:10:04.915Z,12.38
2023-04-16T05:12:31.566Z,13.15
2023-04-16T05:14:58.113Z,12.82
2023-04-16T05:17:24.705Z,13.55
2023-04-16T05:19:52.139Z,14.40
2023-04-16T05:22:19.063Z,14.02
2023-04-16T05:24:45.843Z,13.00
2023-04-16T05:27:12.349Z,13.00
2023-04-16T05:29:38.904Z,12.27
2023-04-16T05:32:05.578Z,13.30
2023-04-16T05:34:32.387Z,12.75
2023-04-16T05:36:58.928Z,12.40
2023-04-16T05:39:25.673Z,12.70
2023-04-16T05:41:52.325Z,13.38
2023-04-16T05:44:18.787Z,13.45
2023-04-16T05:46:45.430Z,13.27
2023-04-16T05:49:12.140Z,13.20
2023-04-16T05:51:39.007Z,12.18
2023-04-16T05:54:05.508Z,12.35
2023-04-16T05:56:32.168Z,12.77
2023-04-16T05:58:58.584Z,13.02
2023-04-16T06:01:25.430Z,12.80
2023-04-16T06:03:52.191Z,12.40
2023-04-16T06:06:18.822Z,13.35
2023-04-16T06:08:45.244Z,12.52
2023-04-16T06:11:12.229Z,13.25
2023-04-16T06:13:39.040Z,12.88
2023-04-16T06:16:06.292Z,13.32
2023-04-16T06:18:32.802Z,13.57
2023-04-16T06:20:59.608Z,13.18
2023-04-16T06:23:26.191Z,12.27
2023-04-16T06:25:52.749Z,12.55
2023-04-16T06:28:19.228Z,12.02
2023-04-16T06:30:46.766Z,12.73
2023-04-16T06:33:13.609Z,13.10
2023-04-16T06:35:40.121Z,11.82
2023-04-16T06:38:06.878Z,11.93
2023-04-16T06:40:33.490Z,11.70
2023-04-16T06:43:00.041Z,12.32
2023-04-16T06:45:26.808Z,11.38
2023-04-16T06:47:53.369Z,12.23
2023-04-16T06:50:19.846Z,11.18
2023-04-16T06:52:46.632Z,11.27
2023-04-16T06:55:13.009Z,12.20
2023-04-16T06:57:40.784Z,12.10
2023-04-16T07:00:08.027Z,12.43
2023-04-16T07:02:35.044Z,12.07
2023-04-16T07:05:01.781Z,11.82
2023-04-16T07:07:28.253Z,11.63
2023-04-16T07:09:55.033Z,12.15
2023-04-16T07:12:22.836Z,12.05
2023-04-16T07:14:49.632Z,12.25
2023-04-16T07:17:16.282Z,12.27
2023-04-16T07:19:42.676Z,13.57
2023-04-16T07:22:09.250Z,12.07
2023-04-16T07:24:35.853Z,13.70
2023-04-16T07:27:02.397Z,13.35
2023-04-16T07:29:29.019Z,13.40
2023-04-16T07:31:55.673Z,13.52
2023-04-16T07:34:22.538Z,14.98
2023-04-16T07:36:48.990Z,15.30
2023-04-16T07:39:15.521Z,15.55
2023-04-16T07:41:43.054Z,14.75
2023-04-16T07:44:09.568Z,16.70
2023-04-16T07:46:43.615Z,15.52
2023-04-16T07:49:13.285Z,16.40
2023-04-16T07:51:39.767Z,16.88
2023-04-16T07:54:06.431Z,17.80
2023-04-16T07:56:32.923Z,18.63
2023-04-16T07:59:08.009Z,19.08
2023-04-16T08:01:45.493Z,19.13
2023-04-16T08:04:12.264Z,18.15
2023-04-16T08:06:39.001Z,18.53
2023-04-16T08:09:05.761Z,19.08
2023-04-16T08:11:32.311Z,18.65
2023-04-16T08:13:58.918Z,17.95
2023-04-16T08:16:25.578Z,18.45
2023-04-16T08:18:52.247Z,18.20
2023-04-16T08:21:18.778Z,17.45
2023-04-16T08:23:45.424Z,18.33
2023-04-16T08:26:11.859Z,18.50
2023-04-16T08:28:38.544Z,17.00
2023-04-16T08:31:05.371Z,18.33
2023-04-16T08:33:32.130Z,17.23
2023-04-16T08:35:58.782Z,17.48
2023-04-16T08:38:26.289Z,18.15
2023-04-16T08:40:54.972Z,17.27
2023-04-16T08:43:23.715Z,17.27
2023-04-16T08:45:50.902Z,17.60
2023-04-16T08:48:20.591Z,17.33
2023-04-16T08:50:52.294Z,16.88
2023-04-16T08:53:29.575Z,16.55
2023-04-16T08:55:59.613Z,15.88
2023-04-16T08:58:29.584Z,17.70
2023-04-16T09:00:56.312Z,16.75
2023-04-16T09:03:22.959Z,17.40
2023-04-16T09:05:49.574Z,16.58
2023-04-16T09:08:17.303Z,16.00
2023-04-16T09:10:43.793Z,16.33
2023-04-16T09:13:11.635Z,15.18
2023-04-16T09:15:39.373Z,14.93
2023-04-16T09:18:05.994Z,14.70
2023-04-16T09:20:32.523Z,15.32
2023-04-16T09:22:59.007Z,16.00
2023-04-16T09:25:26.270Z,15.45
2023-04-16T09:27:52.749Z,17.75
2023-04-16T09:30:21.608Z,15.95
2023-04-16T09:32:48.852Z,16.65
2023-04-16T09:35:15.769Z,15.50
2023-04-16T09:37:42.368Z,15.90
2023-04-16T09:40:09.616Z,14.88
2023-04-16T09:42:37.152Z,15.43
2023-04-16T09:45:05.682Z,16.00
2023-04-16T09:47:44.772Z,15.77
2023-04-16T09:50:19.117Z,15.20
2023-04-16T09:52:50.114Z,15.30
2023-04-16T09:55:16.715Z,15.52
2023-04-16T09:57:43.286Z,15.65
2023-04-16T10:00:10.654Z,15.10
2023-04-16T10:02:42.071Z,14.88
2023-04-16T10:05:09.472Z,13.82
2023-04-16T10:07:37.139Z,14.70
2023-04-16T10:10:05.002Z,13.65
2023-04-16T10:12:32.659Z,14.13
2023-04-16T10:14:59.279Z,14.93
2023-04-16T10:17:26.860Z,15.07
2023-04-16T10:19:54.661Z,14.25
2023-04-16T10:22:21.362Z,14.68
2023-04-16T10:24:48.819Z,14.40
2023-04-16T10:27:16.598Z,14.55
2023-04-16T10:29:44.537Z,14.32
2023-04-16T10:32:11.779Z,14.43
2023-04-16T10:34:39.001Z,14.90
2023-04-16T10:37:05.513Z,14.32
2023-04-16T10:39:37.416Z,16.50
2023-04-16T10:42:12.317Z,14.02
2023-04-16T10:44:42.799Z,14.23
2023-04-16T10:47:13.097Z,13.82
2023-04-16T10:49:40.436Z,14.32
2023-04-16T10:52:17.030Z,14.80
2023-04-16T10:54:43.845Z,13.68
2023-04-16T10:57:15.994Z,13.48
2023-04-16T10:59:43.994Z,13.55
2023-04-16T11:02:18.915Z,13.77
2023-04-16T11:04:47.589Z,14.45
2023-04-16T11:07:22.551Z,13.90
2023-04-16T11:09:52.099Z,13.55
2023-04-16T11:12:27.664Z,14.10
2023-04-16T11:14:59.337Z,13.55
2023-04-16T11:17:29.562Z,13.27
2023-04-16T11:19:56.451Z,14.70
2023-04-16T11:22:23.018Z,16.33
2023-04-16T11:24:57.134Z,14.65
2023-04-16T11:27:24.465Z,15.30
2023-04-16T11:30:02.032Z,13.88
2023-04-16T11:32:32.592Z,13.50
2023-04-16T11:35:03.388Z,13.95
2023-04-16T11:37:34.829Z,13.95
2023-04-16T11:40:04.753Z,14.80
2023-04-16T11:42:31.254Z,14.75
2023-04-16T11:45:00.581Z,14.75
2023-04-16T11:47:27.614Z,14.68
2023-04-16T11:49:54.200Z,15.77
2023-04-16T11:52:32.379Z,15.70
2023-04-16T11:54:59.829Z,14.93
2023-04-16T11:57:31.083Z,14.88
2023-04-16T12:00:01.635Z,15.60
2023-04-16T12:02:43.159Z,15.27
2023-04-16T12:05:28.701Z,15.48
2023-04-16T12:07:56.203Z,15.07
2023-04-16T12:10:22.753Z,16.42
2023-04-16T12:12:49.543Z,17.00
2023-04-16T12:15:16.519Z,15.45
2023-04-16T12:17:43.174Z,16.38
2023-04-16T12:20:11.996Z,14.90
2023-04-16T12:22:46.898Z,15.30
2023-04-16T12:25:15.521Z,15.00
2023-04-16T12:27:53.266Z,14.93
2023-04-16T12:30:22.870Z,15.10
2023-04-16T12:32:52.248Z,15.48
2023-04-16T12:35:33.117Z,16.23
2023-04-16T12:40:26.827Z,16.95
2023-04-16T12:42:53.265Z,15.77
2023-04-16T12:45:19.937Z,15.73
2023-04-16T12:47:46.990Z,16.50
2023-04-16T12:50:13.629Z,17.40
2023-04-16T12:52:40.110Z,17.92
2023-04-16T12:55:07.048Z,16.75
2023-04-16T12:57:33.599Z,17.08
2023-04-16T13:00:00.068Z,16.27
2023-04-16T13:02:27.138Z,17.05
2023-04-16T13:04:54.290Z,15.73
2023-04-16T13:07:21.234Z,16.08
2023-04-16T13:09:47.891Z,17.77
2023-04-16T13:12:14.378Z,16.17
2023-04-16T13:14:43.307Z,18.05
2023-04-16T13:17:11.478Z,15.38
2023-04-16T13:19:38.132Z,17.73
2023-04-16T13:22:04.584Z,16.92
2023-04-16T13:24:31.501Z,17.63
2023-04-16T13:26:58.216Z,17.38
2023-04-16T13:29:24.752Z,17.23
2023-04-16T13:31:51.432Z,17.35
2023-04-16T13:34:18.209Z,17.55
2023-04-16T13:36:44.936Z,18.23
2023-04-16T13:39:11.780Z,18.45
2023-04-16T13:41:38.738Z,19.60
2023-04-16T13:44:05.844Z,17.77
2023-04-16T13:46:32.565Z,18.88
2023-04-16T13:48:59.380Z,20.75
2023-04-16T13:51:27.239Z,19.30
2023-04-16T13:53:55.649Z,18.45
2023-04-16T13:56:22.383Z,18.25
2023-04-16T13:58:49.426Z,18.10
2023-04-16T14:01:17.159Z,17.52
2023-04-16T14:03:44.153Z,17.75
2023-04-16T14:06:11.101Z,19.48
2023-04-16T14:08:38.181Z,18.65
2023-04-16T14:11:06.477Z,18.48
2023-04-16T14:13:33.181Z,19.67
2023-04-16T14:15:59.836Z,20.27
2023-04-16T14:18:26.468Z,20.90
2023-04-16T14:20:53.027Z,20.65
2023-04-16T14:23:19.434Z,20.85
2023-04-16T14:25:46.190Z,21.23
2023-04-16T14:28:14.313Z,20.35
2023-04-16T14:30:42.462Z,20.57
2023-04-16T14:33:09.126Z,20.38
2023-04-16T14:35:36.132Z,20.15
2023-04-16T14:38:02.747Z,20.92
2023-04-16T14:40:29.515Z,21.30
2023-04-16T14:42:56.134Z,21.05
2023-04-16T14:45:23.088Z,22.13
2023-04-16T14:47:50.863Z,20.85
2023-04-16T14:50:17.499Z,20.98
2023-04-16T14:52:44.270Z,20.17
2023-04-16T14:55:10.795Z,22.23
2023-04-16T14:57:38.510Z,21.45
2023-04-16T15:00:11.915Z,22.27
2023-04-16T15:02:38.808Z,21.25
2023-04-16T15:05:07.728Z,19.48
2023-04-16T15:07:34.221Z,21.45
2023-04-16T15:10:01.013Z,22.60
2023-04-16T15:12:27.655Z,22.75
2023-04-16T15:14:54.364Z,20.35
2023-04-16T15:17:22.980Z,19.90
2023-04-16T15:19:52.249Z,20.77
2023-04-16T15:22:19.596Z,19.95
2023-04-16T15:24:46.599Z,21.40
2023-04-16T15:27:14.787Z,21.77
2023-04-16T15:29:41.704Z,21.63
2023-04-16T15:32:08.541Z,20.95
2023-04-16T15:34:35.071Z,21.60
2023-04-16T15:37:01.818Z,22.42
2023-04-16T15:39:28.235Z,20.30
2023-04-16T15:42:01.493Z,19.98
2023-04-16T15:44:28.418Z,19.02
2023-04-16T15:46:54.917Z,20.13
2023-04-16T15:49:21.372Z,19.33
2023-04-16T15:51:48.117Z,19.67
2023-04-16T15:54:14.809Z,19.15
2023-04-16T15:56:41.635Z,18.98
2023-04-16T15:59:08.300Z,18.50
2023-04-16T16:01:34.918Z,17.27
2023-04-16T16:04:07.688Z,17.70
2023-04-16T16:06:34.592Z,19.40
2023-04-16T16:09:01.670Z,16.45
2023-04-16T16:11:28.411Z,17.42
2023-04-16T16:13:55.096Z,16.60
2023-04-16T16:16:21.926Z,15.68
2023-04-16T16:18:48.848Z,14.82
2023-04-16T16:21:15.394Z,16.70
2023-04-16T16:23:41.963Z,17.33
2023-04-16T16:26:09.395Z,16.30
2023-04-16T16:28:39.075Z,16.15
2023-04-16T16:31:06.774Z,16.13
2023-04-16T16:33:33.379Z,16.70
2023-04-16T16:35:59.977Z,17.55
2023-04-16T16:38:27.155Z,17.52
2023-04-16T16:40:53.688Z,18.20
2023-04-16T16:43:20.331Z,17.55
2023-04-16T16:45:47.245Z,17.65
2023-04-16T16:48:13.838Z,19.10
2023-04-16T16:50:40.672Z,19.58
2023-04-16T16:53:07.514Z,19.52
2023-04-16T16:55:35.085Z,20.08
2023-04-16T16:58:01.947Z,18.05
2023-04-16T17:00:28.952Z,19.25
2023-04-16T17:02:55.479Z,20.95
2023-04-16T17:05:22.504Z,20.17
2023-04-16T17:07:49.065Z,20.48
2023-04-16T17:10:21.907Z,19.25
2023-04-16T17:12:49.401Z,19.58
2023-04-16T17:15:17.551Z,19.73
2023-04-16T17:17:46.169Z,20.83
2023-04-16T17:20:12.667Z,21.30
2023-04-16T17:22:39.931Z,21.60
2023-04-16T17:25:07.991Z,19.85
2023-04-16T17:27:34.761Z,19.95
2023-04-16T17:30:02.480Z,20.13
2023-04-16T17:32:29.950Z,21.95
2023-04-16T17:34:56.656Z,19.67
2023-04-16T17:37:23.474Z,19.65
2023-04-16T17:39:50.445Z,19.65
2023-04-16T17:42:17.589Z,18.48
2023-04-16T17:44:44.392Z,17.50
2023-04-16T17:47:12.667Z,16.90
2023-04-16T17:49:39.374Z,15.57
2023-04-16T17:52:06.419Z,16.15
2023-04-16T17:54:32.874Z,17.20
2023-04-16T17:56:59.516Z,17.83
2023-04-16T17:59:26.388Z,17.02
2023-04-16T18:01:53.151Z,17.90
2023-04-16T18:04:19.899Z,18.00
2023-04-16T18:06:46.651Z,20.05
2023-04-16T18:09:14.288Z,20.33
2023-04-16T18:11:40.798Z,18.80
2023-04-16T18:14:13.189Z,21.50
2023-04-16T18:16:51.306Z,22.63
2023-04-16T18:19:20.836Z,22.85
2023-04-16T18:21:47.482Z,21.40
2023-04-16T18:24:15.072Z,20.70
2023-04-16T18:26:41.614Z,21.55
2023-04-16T18:29:09.146Z,20.55
2023-04-16T18:31:36.093Z,22.23
2023-04-16T18:34:02.677Z,20.73
2023-04-16T18:36:29.432Z,20.30
2023-04-16T18:39:15.642Z,18.65
2023-04-16T18:41:43.638Z,19.27
2023-04-16T18:44:10.892Z,19.27
2023-04-16T18:46:37.460Z,19.45
2023-04-16T18:49:04.069Z,19.05
2023-04-16T18:51:30.723Z,21.35
2023-04-16T18:53:57.347Z,20.98
2023-04-16T18:56:23.893Z,21.67
2023-04-16T18:58:50.540Z,20.48
2023-04-16T19:01:17.945Z,20.45
2023-04-16T19:03:45.354Z,20.02
2023-04-16T19:06:11.904Z,19.73
2023-04-16T19:08:38.374Z,16.50
2023-04-16T19:11:04.876Z,16.92
2023-04-16T19:13:32.305Z,17.25
2023-04-16T19:15:59.761Z,16.27
2023-04-16T19:18:26.620Z,15.13
2023-04-16T19:21:00.489Z,14.57
2023-04-16T19:23:27.384Z,15.45
2023-04-16T19:25:56.125Z,15.68
2023-04-16T19:28:23.439Z,15.82
2023-04-16T19:30:51.282Z,15.80
2023-04-16T19:33:18.473Z,15.98
2023-04-16T19:35:46.278Z,14.15
2023-04-16T19:38:13.268Z,15.75
2023-04-16T19:40:40.385Z,16.08
2023-04-16T19:43:06.897Z,14.85
2023-04-16T19:45:33.550Z,15.88
2023-04-16T19:48:00.293Z,16.80
2023-04-16T19:50:27.036Z,18.05
2023-04-16T19:52:53.504Z,15.55
2023-04-16T19:55:20.044Z,18.10
2023-04-16T19:57:47.808Z,14.93
2023-04-16T20:00:14.798Z,16.08
2023-04-16T20:02:41.413Z,16.08
2023-04-16T20:05:08.517Z,15.20
2023-04-16T20:07:35.413Z,15.75
2023-04-16T20:10:02.865Z,14.20
2023-04-16T20:12:29.453Z,14.20
2023-04-16T20:14:55.977Z,13.52
2023-04-16T20:17:23.073Z,11.48
2023-04-16T20:19:51.123Z,12.25
2023-04-16T20:22:18.572Z,11.32
2023-04-16T20:24:47.818Z,10.95
2023-04-16T20:27:15.261Z,11.37
2023-04-16T20:29:42.214Z,10.55
2023-04-16T20:32:08.859Z,11.82
2023-04-16T20:34:36.528Z,11.77
2023-04-16T20:37:03.039Z,12.52
2023-04-16T20:39:34.090Z,13.02
2023-04-16T20:42:00.812Z,12.80
2023-04-16T20:44:33.322Z,12.88
2023-04-16T20:47:00.132Z,12.55
2023-04-16T20:49:26.646Z,11.73
2023-04-16T20:51:53.321Z,10.63
2023-04-16T20:54:19.949Z,11.75
2023-04-16T20:56:47.139Z,11.60
2023-04-16T20:59:13.760Z,11.93
2023-04-16T21:01:40.581Z,13.20
2023-04-16T21:04:07.876Z,12.50
2023-04-16T21:06:38.443Z,11.80
2023-04-16T21:11:34.557Z,11.52
2023-04-16T21:14:01.810Z,12.15
2023-04-16T21:16:29.067Z,12.70
2023-04-16T21:18:56.364Z,12.65
2023-04-16T21:21:24.039Z,14.77
2023-04-16T21:23:50.925Z,13.32
2023-04-16T21:26:17.498Z,14.02
2023-04-16T21:28:44.152Z,12.95
2023-04-16T21:31:11.038Z,13.88
2023-04-16T21:33:37.649Z,13.18
2023-04-16T21:36:04.235Z,12.43
2023-04-16T21:38:30.819Z,11.52
2023-04-16T21:40:57.401Z,13.18
2023-04-16T21:43:24.184Z,13.32
2023-04-16T21:45:53.766Z,12.80
2023-04-16T21:48:21.034Z,12.73
2023-04-16T21:50:47.659Z,13.43
2023-04-16T21:53:14.184Z,14.10
2023-04-16T21:55:41.728Z,13.82
2023-04-16T21:58:08.156Z,13.50
2023-04-16T22:00:34.788Z,13.68
2023-04-16T22:03:01.394Z,13.52
2023-04-16T22:05:27.991Z,14.18
2023-04-16T22:07:54.548Z,14.23
2023-04-16T22:10:21.182Z,13.82
2023-04-16T22:12:47.932Z,13.20
2023-04-16T22:15:14.661Z,13.35
2023-04-16T22:17:41.421Z,13.43
2023-04-16T22:20:14.529Z,13.60
2023-04-16T22:22:42.318Z,14.05
2023-04-16T22:25:09.665Z,13.48
2023-04-16T22:27:36.646Z,13.77
2023-04-16T22:30:04.208Z,13.43
2023-04-16T22:32:30.865Z,13.38
2023-04-16T22:34:57.736Z,15.85
2023-04-16T22:37:24.607Z,13.38
2023-04-16T22:39:51.370Z,13.63
2023-04-16T22:42:17.857Z,12.55
2023-04-16T22:44:44.505Z,16.02
2023-04-16T22:47:10.946Z,15.13
2023-04-16T22:49:37.634Z,15.60
2023-04-16T22:52:04.283Z,16.58
2023-04-16T22:54:31.924Z,16.17
2023-04-16T22:56:58.713Z,16.83
2023-04-16T22:59:25.452Z,15.52
2023-04-16T23:01:52.851Z,15.20
2023-04-16T23:04:19.807Z,13.27
2023-04-16T23:06:46.325Z,15.13
2023-04-16T23:09:13.323Z,13.68
2023-04-16T23:11:40.394Z,14.20
2023-04-16T23:14:07.581Z,14.55
2023-04-16T23:16:34.173Z,14.05
2023-04-16T23:19:00.981Z,13.77
2023-04-16T23:21:27.393Z,15.45
2023-04-16T23:23:54.283Z,17.00
2023-04-16T23:26:21.028Z,14.85
2023-04-16T23:28:47.489Z,13.70
2023-04-16T23:31:14.149Z,14.13
2023-04-16T23:33:40.856Z,13.25
2023-04-16T23:36:07.889Z,12.48
2023-04-16T23:38:34.529Z,13.10
2023-04-16T23:41:01.030Z,12.40
2023-04-16T23:43:27.822Z,11.95
2023-04-16T23:45:54.263Z,12.10
2023-04-16T23:48:21.078Z,11.88
2023-04-16T23:50:47.558Z,12.75
2023-04-16T23:53:14.018Z,11.95
2023-04-16T23:55:40.760Z,12.95
2023-04-16T23:58:07.357Z,11.32
